sensor_id;sensor_type;location;lat;lon;timestamp;P1;durP1;ratioP1;P2;durP2;ratioP2
67896;SDS011;54698;48.428;9.964;2022-08-19T00:00:23;35.45;;;23.23;;
67896;SDS011;54698;48.428;9.964;2022-08-19T00:02:50;41.80;;;24.42;;
67896;SDS011;54698;48.428;9.964;2022-08-19T00:05:17;40.42;;;24.67;;
67896;SDS011;54698;48.428;9.964;2022-08-19T00:07:45;42.63;;;25.73;;
67896;SDS011;54698;48.428;9.964;2022-08-19T00:10:12;41.00;;;25.80;;
67896;SDS011;54698;48.428;9.964;2022-08-19T00:12:39;39.35;;;24.92;;
67896;SDS011;54698;48.428;9.964;2022-08-19T00:15:07;44.15;;;27.17;;
67896;SDS011;54698;48.428;9.964;2022-08-19T00:17:36;48.33;;;29.75;;
67896;SDS011;54698;48.428;9.964;2022-08-19T00:20:04;43.70;;;26.08;;
67896;SDS011;54698;48.428;9.964;2022-08-19T00:22:32;44.40;;;28.05;;
67896;SDS011;54698;48.428;9.964;2022-08-19T00:24:58;41.80;;;25.98;;
67896;SDS011;54698;48.428;9.964;2022-08-19T00:27:24;43.35;;;28.02;;
67896;SDS011;54698;48.428;9.964;2022-08-19T00:29:50;40.15;;;26.27;;
67896;SDS011;54698;48.428;9.964;2022-08-19T00:32:15;38.58;;;26.77;;
67896;SDS011;54698;48.428;9.964;2022-08-19T00:34:42;44.50;;;25.80;;
67896;SDS011;54698;48.428;9.964;2022-08-19T00:37:09;39.97;;;28.42;;
67896;SDS011;54698;48.428;9.964;2022-08-19T00:39:35;43.20;;;27.25;;
67896;SDS011;54698;48.428;9.964;2022-08-19T00:42:01;40.38;;;27.02;;
67896;SDS011;54698;48.428;9.964;2022-08-19T00:44:28;47.67;;;30.77;;
67896;SDS011;54698;48.428;9.964;2022-08-19T00:46:54;44.45;;;28.52;;
67896;SDS011;54698;48.428;9.964;2022-08-19T00:49:24;43.15;;;28.50;;
67896;SDS011;54698;48.428;9.964;2022-08-19T00:51:55;48.30;;;29.23;;
67896;SDS011;54698;48.428;9.964;2022-08-19T00:54:28;51.00;;;31.25;;
67896;SDS011;54698;48.428;9.964;2022-08-19T00:56:54;51.08;;;29.55;;
67896;SDS011;54698;48.428;9.964;2022-08-19T00:59:20;52.47;;;29.40;;
67896;SDS011;54698;48.428;9.964;2022-08-19T01:01:46;52.10;;;31.45;;
67896;SDS011;54698;48.428;9.964;2022-08-19T01:04:12;49.72;;;29.48;;
67896;SDS011;54698;48.428;9.964;2022-08-19T01:06:39;51.17;;;30.55;;
67896;SDS011;54698;48.428;9.964;2022-08-19T01:09:05;48.17;;;30.65;;
67896;SDS011;54698;48.428;9.964;2022-08-19T01:11:34;50.65;;;30.33;;
67896;SDS011;54698;48.428;9.964;2022-08-19T01:14:04;47.97;;;28.98;;
67896;SDS011;54698;48.428;9.964;2022-08-19T01:16:32;56.03;;;31.60;;
67896;SDS011;54698;48.428;9.964;2022-08-19T01:18:59;52.20;;;29.77;;
67896;SDS011;54698;48.428;9.964;2022-08-19T01:21:27;57.60;;;30.50;;
67896;SDS011;54698;48.428;9.964;2022-08-19T01:23:59;52.05;;;29.88;;
67896;SDS011;54698;48.428;9.964;2022-08-19T01:26:25;50.17;;;29.92;;
67896;SDS011;54698;48.428;9.964;2022-08-19T01:28:54;48.72;;;28.58;;
67896;SDS011;54698;48.428;9.964;2022-08-19T01:31:22;51.58;;;31.77;;
67896;SDS011;54698;48.428;9.964;2022-08-19T01:33:52;57.33;;;33.15;;
67896;SDS011;54698;48.428;9.964;2022-08-19T01:36:22;53.53;;;30.88;;
67896;SDS011;54698;48.428;9.964;2022-08-19T01:38:49;50.65;;;30.80;;
67896;SDS011;54698;48.428;9.964;2022-08-19T01:41:17;49.75;;;28.38;;
67896;SDS011;54698;48.428;9.964;2022-08-19T01:43:43;51.88;;;30.60;;
67896;SDS011;54698;48.428;9.964;2022-08-19T01:46:10;50.88;;;31.50;;
67896;SDS011;54698;48.428;9.964;2022-08-19T01:48:37;49.15;;;29.20;;
67896;SDS011;54698;48.428;9.964;2022-08-19T01:51:05;47.03;;;29.40;;
67896;SDS011;54698;48.428;9.964;2022-08-19T01:53:32;53.33;;;30.10;;
67896;SDS011;54698;48.428;9.964;2022-08-19T01:55:58;60.17;;;30.83;;
67896;SDS011;54698;48.428;9.964;2022-08-19T01:58:26;60.72;;;33.45;;
67896;SDS011;54698;48.428;9.964;2022-08-19T02:01:02;59.22;;;32.40;;
67896;SDS011;54698;48.428;9.964;2022-08-19T02:03:29;61.38;;;33.78;;
67896;SDS011;54698;48.428;9.964;2022-08-19T02:05:56;69.53;;;35.55;;
67896;SDS011;54698;48.428;9.964;2022-08-19T02:08:24;64.25;;;32.95;;
67896;SDS011;54698;48.428;9.964;2022-08-19T02:10:50;64.95;;;34.38;;
67896;SDS011;54698;48.428;9.964;2022-08-19T02:13:16;59.80;;;32.70;;
67896;SDS011;54698;48.428;9.964;2022-08-19T02:15:43;62.55;;;33.72;;
67896;SDS011;54698;48.428;9.964;2022-08-19T02:18:09;61.03;;;32.47;;
67896;SDS011;54698;48.428;9.964;2022-08-19T02:20:35;60.70;;;30.00;;
67896;SDS011;54698;48.428;9.964;2022-08-19T02:23:02;66.22;;;32.53;;
67896;SDS011;54698;48.428;9.964;2022-08-19T02:25:29;56.47;;;32.00;;
67896;SDS011;54698;48.428;9.964;2022-08-19T02:27:55;60.63;;;31.13;;
67896;SDS011;54698;48.428;9.964;2022-08-19T02:30:21;60.05;;;32.22;;
67896;SDS011;54698;48.428;9.964;2022-08-19T02:32:48;67.70;;;31.58;;
67896;SDS011;54698;48.428;9.964;2022-08-19T02:35:14;74.65;;;35.63;;
67896;SDS011;54698;48.428;9.964;2022-08-19T02:37:41;70.32;;;35.00;;
67896;SDS011;54698;48.428;9.964;2022-08-19T02:40:08;67.75;;;33.40;;
67896;SDS011;54698;48.428;9.964;2022-08-19T02:42:34;66.72;;;34.45;;
67896;SDS011;54698;48.428;9.964;2022-08-19T02:45:00;67.93;;;34.55;;
67896;SDS011;54698;48.428;9.964;2022-08-19T02:47:26;69.57;;;33.90;;
67896;SDS011;54698;48.428;9.964;2022-08-19T02:49:53;76.53;;;35.20;;
67896;SDS011;54698;48.428;9.964;2022-08-19T02:52:19;68.30;;;35.35;;
67896;SDS011;54698;48.428;9.964;2022-08-19T02:54:45;72.88;;;35.97;;
67896;SDS011;54698;48.428;9.964;2022-08-19T02:57:11;68.88;;;33.58;;
67896;SDS011;54698;48.428;9.964;2022-08-19T02:59:36;67.32;;;32.50;;
67896;SDS011;54698;48.428;9.964;2022-08-19T03:02:02;71.72;;;35.10;;
67896;SDS011;54698;48.428;9.964;2022-08-19T03:04:28;70.40;;;35.42;;
67896;SDS011;54698;48.428;9.964;2022-08-19T03:06:56;84.28;;;36.35;;
67896;SDS011;54698;48.428;9.964;2022-08-19T03:09:22;71.28;;;36.67;;
67896;SDS011;54698;48.428;9.964;2022-08-19T03:11:47;80.13;;;35.88;;
67896;SDS011;54698;48.428;9.964;2022-08-19T03:14:13;76.45;;;37.20;;
67896;SDS011;54698;48.428;9.964;2022-08-19T03:16:41;78.75;;;36.30;;
67896;SDS011;54698;48.428;9.964;2022-08-19T03:19:09;80.57;;;36.60;;
67896;SDS011;54698;48.428;9.964;2022-08-19T03:21:35;81.85;;;36.45;;
67896;SDS011;54698;48.428;9.964;2022-08-19T03:24:03;86.03;;;37.70;;
67896;SDS011;54698;48.428;9.964;2022-08-19T03:26:32;78.72;;;38.85;;
67896;SDS011;54698;48.428;9.964;2022-08-19T03:29:00;81.50;;;37.38;;
67896;SDS011;54698;48.428;9.964;2022-08-19T03:31:27;88.78;;;37.55;;
67896;SDS011;54698;48.428;9.964;2022-08-19T03:33:53;80.68;;;37.22;;
67896;SDS011;54698;48.428;9.964;2022-08-19T03:36:20;85.85;;;39.75;;
67896;SDS011;54698;48.428;9.964;2022-08-19T03:38:48;84.63;;;37.55;;
67896;SDS011;54698;48.428;9.964;2022-08-19T03:41:18;83.18;;;37.90;;
67896;SDS011;54698;48.428;9.964;2022-08-19T03:43:47;78.28;;;39.50;;
67896;SDS011;54698;48.428;9.964;2022-08-19T03:46:13;78.63;;;35.78;;
67896;SDS011;54698;48.428;9.964;2022-08-19T03:48:42;78.90;;;36.88;;
67896;SDS011;54698;48.428;9.964;2022-08-19T03:51:15;71.50;;;37.92;;
67896;SDS011;54698;48.428;9.964;2022-08-19T03:53:43;77.03;;;33.95;;
67896;SDS011;54698;48.428;9.964;2022-08-19T03:56:09;72.90;;;34.58;;
67896;SDS011;54698;48.428;9.964;2022-08-19T03:58:37;67.28;;;35.53;;
67896;SDS011;54698;48.428;9.964;2022-08-19T04:01:06;78.75;;;34.67;;
67896;SDS011;54698;48.428;9.964;2022-08-19T04:03:33;69.88;;;33.72;;
67896;SDS011;54698;48.428;9.964;2022-08-19T04:06:00;66.10;;;31.17;;
67896;SDS011;54698;48.428;9.964;2022-08-19T04:08:36;66.32;;;33.97;;
67896;SDS011;54698;48.428;9.964;2022-08-19T04:11:06;69.03;;;32.58;;
67896;SDS011;54698;48.428;9.964;2022-08-19T04:13:33;68.18;;;35.28;;
67896;SDS011;54698;48.428;9.964;2022-08-19T04:16:00;67.28;;;32.80;;
67896;SDS011;54698;48.428;9.964;2022-08-19T04:18:26;73.40;;;32.67;;
67896;SDS011;54698;48.428;9.964;2022-08-19T04:20:52;73.07;;;35.65;;
67896;SDS011;54698;48.428;9.964;2022-08-19T04:23:17;67.30;;;33.58;;
67896;SDS011;54698;48.428;9.964;2022-08-19T04:25:43;70.43;;;33.05;;
67896;SDS011;54698;48.428;9.964;2022-08-19T04:28:10;64.35;;;31.42;;
67896;SDS011;54698;48.428;9.964;2022-08-19T04:30:38;71.45;;;34.42;;
67896;SDS011;54698;48.428;9.964;2022-08-19T04:33:07;63.92;;;32.95;;
67896;SDS011;54698;48.428;9.964;2022-08-19T04:35:35;65.43;;;33.65;;
67896;SDS011;54698;48.428;9.964;2022-08-19T04:38:02;56.47;;;32.45;;
67896;SDS011;54698;48.428;9.964;2022-08-19T04:40:28;65.25;;;32.22;;
67896;SDS011;54698;48.428;9.964;2022-08-19T04:42:54;66.15;;;32.67;;
67896;SDS011;54698;48.428;9.964;2022-08-19T04:45:20;60.35;;;30.50;;
67896;SDS011;54698;48.428;9.964;2022-08-19T04:47:46;61.72;;;31.50;;
67896;SDS011;54698;48.428;9.964;2022-08-19T04:50:13;57.92;;;30.25;;
67896;SDS011;54698;48.428;9.964;2022-08-19T04:52:39;55.72;;;29.48;;
67896;SDS011;54698;48.428;9.964;2022-08-19T04:55:05;49.97;;;30.13;;
67896;SDS011;54698;48.428;9.964;2022-08-19T04:57:32;53.70;;;29.10;;
67896;SDS011;54698;48.428;9.964;2022-08-19T04:59:58;60.20;;;29.92;;
67896;SDS011;54698;48.428;9.964;2022-08-19T05:02:23;58.92;;;30.25;;
67896;SDS011;54698;48.428;9.964;2022-08-19T05:04:49;62.65;;;30.98;;
67896;SDS011;54698;48.428;9.964;2022-08-19T05:07:17;68.50;;;33.70;;
67896;SDS011;54698;48.428;9.964;2022-08-19T05:09:42;62.30;;;31.40;;
67896;SDS011;54698;48.428;9.964;2022-08-19T05:12:08;65.95;;;34.72;;
67896;SDS011;54698;48.428;9.964;2022-08-19T05:14:34;61.90;;;31.55;;
67896;SDS011;54698;48.428;9.964;2022-08-19T05:17:00;77.55;;;34.70;;
67896;SDS011;54698;48.428;9.964;2022-08-19T05:19:26;67.53;;;32.67;;
67896;SDS011;54698;48.428;9.964;2022-08-19T05:21:52;67.32;;;31.30;;
67896;SDS011;54698;48.428;9.964;2022-08-19T05:24:21;71.35;;;32.63;;
67896;SDS011;54698;48.428;9.964;2022-08-19T05:26:48;62.58;;;30.25;;
67896;SDS011;54698;48.428;9.964;2022-08-19T05:29:16;65.75;;;32.13;;
67896;SDS011;54698;48.428;9.964;2022-08-19T05:31:45;65.07;;;32.13;;
67896;SDS011;54698;48.428;9.964;2022-08-19T05:34:12;65.60;;;32.70;;
67896;SDS011;54698;48.428;9.964;2022-08-19T05:36:39;56.70;;;30.42;;
67896;SDS011;54698;48.428;9.964;2022-08-19T05:39:07;71.80;;;32.80;;
67896;SDS011;54698;48.428;9.964;2022-08-19T05:41:40;68.28;;;31.85;;
67896;SDS011;54698;48.428;9.964;2022-08-19T05:44:07;63.55;;;32.63;;
67896;SDS011;54698;48.428;9.964;2022-08-19T05:46:33;62.33;;;30.20;;
67896;SDS011;54698;48.428;9.964;2022-08-19T05:48:58;67.55;;;32.75;;
67896;SDS011;54698;48.428;9.964;2022-08-19T05:51:24;63.05;;;28.77;;
67896;SDS011;54698;48.428;9.964;2022-08-19T05:53:50;63.85;;;30.42;;
67896;SDS011;54698;48.428;9.964;2022-08-19T05:56:16;72.72;;;31.70;;
67896;SDS011;54698;48.428;9.964;2022-08-19T05:58:44;68.45;;;31.45;;
67896;SDS011;54698;48.428;9.964;2022-08-19T06:01:11;60.33;;;29.15;;
67896;SDS011;54698;48.428;9.964;2022-08-19T06:03:39;65.13;;;29.13;;
67896;SDS011;54698;48.428;9.964;2022-08-19T06:06:05;68.55;;;30.60;;
67896;SDS011;54698;48.428;9.964;2022-08-19T06:08:33;71.93;;;31.05;;
67896;SDS011;54698;48.428;9.964;2022-08-19T06:11:11;58.65;;;30.63;;
67896;SDS011;54698;48.428;9.964;2022-08-19T06:13:40;57.28;;;29.58;;
67896;SDS011;54698;48.428;9.964;2022-08-19T06:16:08;61.03;;;30.98;;
67896;SDS011;54698;48.428;9.964;2022-08-19T06:18:33;60.75;;;31.13;;
67896;SDS011;54698;48.428;9.964;2022-08-19T06:20:59;58.28;;;28.83;;
67896;SDS011;54698;48.428;9.964;2022-08-19T06:23:25;65.70;;;31.48;;
67896;SDS011;54698;48.428;9.964;2022-08-19T06:25:51;64.00;;;32.25;;
67896;SDS011;54698;48.428;9.964;2022-08-19T06:28:17;59.20;;;31.05;;
67896;SDS011;54698;48.428;9.964;2022-08-19T06:30:42;57.95;;;28.73;;
67896;SDS011;54698;48.428;9.964;2022-08-19T06:33:10;60.33;;;28.20;;
67896;SDS011;54698;48.428;9.964;2022-08-19T06:35:38;56.70;;;29.30;;
67896;SDS011;54698;48.428;9.964;2022-08-19T06:38:04;60.00;;;31.45;;
67896;SDS011;54698;48.428;9.964;2022-08-19T06:40:30;60.88;;;29.83;;
67896;SDS011;54698;48.428;9.964;2022-08-19T06:42:56;66.85;;;30.17;;
67896;SDS011;54698;48.428;9.964;2022-08-19T06:45:22;60.28;;;31.60;;
67896;SDS011;54698;48.428;9.964;2022-08-19T06:47:49;64.10;;;31.50;;
67896;SDS011;54698;48.428;9.964;2022-08-19T06:50:16;63.85;;;33.28;;
67896;SDS011;54698;48.428;9.964;2022-08-19T06:52:41;69.43;;;30.98;;
67896;SDS011;54698;48.428;9.964;2022-08-19T06:55:07;71.70;;;33.15;;
67896;SDS011;54698;48.428;9.964;2022-08-19T06:57:33;63.97;;;31.83;;
67896;SDS011;54698;48.428;9.964;2022-08-19T06:59:59;62.72;;;28.92;;
67896;SDS011;54698;48.428;9.964;2022-08-19T07:02:25;64.63;;;31.88;;
67896;SDS011;54698;48.428;9.964;2022-08-19T07:04:51;59.08;;;28.30;;
67896;SDS011;54698;48.428;9.964;2022-08-19T07:07:19;56.33;;;29.35;;
67896;SDS011;54698;48.428;9.964;2022-08-19T07:09:46;59.05;;;29.33;;
67896;SDS011;54698;48.428;9.964;2022-08-19T07:12:13;58.80;;;32.28;;
67896;SDS011;54698;48.428;9.964;2022-08-19T07:14:39;59.13;;;30.67;;
67896;SDS011;54698;48.428;9.964;2022-08-19T07:17:06;64.78;;;32.45;;
67896;SDS011;54698;48.428;9.964;2022-08-19T07:19:35;56.03;;;29.48;;
67896;SDS011;54698;48.428;9.964;2022-08-19T07:22:03;57.20;;;28.35;;
67896;SDS011;54698;48.428;9.964;2022-08-19T07:24:32;64.47;;;31.85;;
67896;SDS011;54698;48.428;9.964;2022-08-19T07:27:00;57.40;;;30.15;;
67896;SDS011;54698;48.428;9.964;2022-08-19T07:29:29;65.07;;;32.33;;
67896;SDS011;54698;48.428;9.964;2022-08-19T07:31:57;61.40;;;30.90;;
67896;SDS011;54698;48.428;9.964;2022-08-19T07:34:23;59.03;;;30.25;;
67896;SDS011;54698;48.428;9.964;2022-08-19T07:36:49;58.00;;;29.15;;
67896;SDS011;54698;48.428;9.964;2022-08-19T07:39:17;65.22;;;29.92;;
67896;SDS011;54698;48.428;9.964;2022-08-19T07:41:47;53.03;;;27.35;;
67896;SDS011;54698;48.428;9.964;2022-08-19T07:44:13;57.65;;;29.88;;
67896;SDS011;54698;48.428;9.964;2022-08-19T07:46:41;61.72;;;28.65;;
67896;SDS011;54698;48.428;9.964;2022-08-19T07:49:09;67.82;;;32.40;;
67896;SDS011;54698;48.428;9.964;2022-08-19T07:51:37;69.00;;;31.88;;
67896;SDS011;54698;48.428;9.964;2022-08-19T07:54:03;60.53;;;30.98;;
67896;SDS011;54698;48.428;9.964;2022-08-19T07:56:29;67.63;;;32.00;;
67896;SDS011;54698;48.428;9.964;2022-08-19T07:58:56;68.03;;;32.88;;
67896;SDS011;54698;48.428;9.964;2022-08-19T08:01:23;67.72;;;31.15;;
67896;SDS011;54698;48.428;9.964;2022-08-19T08:03:52;61.83;;;31.42;;
67896;SDS011;54698;48.428;9.964;2022-08-19T08:06:19;63.60;;;30.88;;
67896;SDS011;54698;48.428;9.964;2022-08-19T08:08:45;68.55;;;33.10;;
67896;SDS011;54698;48.428;9.964;2022-08-19T08:11:11;62.75;;;31.20;;
67896;SDS011;54698;48.428;9.964;2022-08-19T08:13:37;61.10;;;32.22;;
67896;SDS011;54698;48.428;9.964;2022-08-19T08:16:04;71.40;;;32.50;;
67896;SDS011;54698;48.428;9.964;2022-08-19T08:18:30;60.90;;;31.02;;
67896;SDS011;54698;48.428;9.964;2022-08-19T08:20:57;61.85;;;29.42;;
67896;SDS011;54698;48.428;9.964;2022-08-19T08:23:24;61.95;;;30.55;;
67896;SDS011;54698;48.428;9.964;2022-08-19T08:25:51;68.97;;;31.40;;
67896;SDS011;54698;48.428;9.964;2022-08-19T08:28:20;66.13;;;32.75;;
67896;SDS011;54698;48.428;9.964;2022-08-19T08:30:47;74.43;;;32.15;;
67896;SDS011;54698;48.428;9.964;2022-08-19T08:33:16;74.35;;;32.78;;
67896;SDS011;54698;48.428;9.964;2022-08-19T08:35:43;78.07;;;35.25;;
67896;SDS011;54698;48.428;9.964;2022-08-19T08:38:08;79.15;;;37.55;;
67896;SDS011;54698;48.428;9.964;2022-08-19T08:40:38;82.68;;;34.10;;
67896;SDS011;54698;48.428;9.964;2022-08-19T08:43:09;73.82;;;34.42;;
67896;SDS011;54698;48.428;9.964;2022-08-19T08:45:48;70.75;;;34.10;;
67896;SDS011;54698;48.428;9.964;2022-08-19T08:48:21;76.97;;;33.60;;
67896;SDS011;54698;48.428;9.964;2022-08-19T08:50:50;87.32;;;36.33;;
67896;SDS011;54698;48.428;9.964;2022-08-19T08:53:19;87.30;;;37.33;;
67896;SDS011;54698;48.428;9.964;2022-08-19T08:55:46;77.60;;;36.70;;
67896;SDS011;54698;48.428;9.964;2022-08-19T08:58:13;81.97;;;36.72;;
67896;SDS011;54698;48.428;9.964;2022-08-19T09:00:45;97.68;;;40.97;;
67896;SDS011;54698;48.428;9.964;2022-08-19T09:03:18;85.28;;;38.80;;
67896;SDS011;54698;48.428;9.964;2022-08-19T09:05:55;85.15;;;37.83;;
67896;SDS011;54698;48.428;9.964;2022-08-19T09:08:28;73.78;;;35.20;;
67896;SDS011;54698;48.428;9.964;2022-08-19T09:11:06;87.60;;;38.45;;
67896;SDS011;54698;48.428;9.964;2022-08-19T09:13:38;69.28;;;34.22;;
67896;SDS011;54698;48.428;9.964;2022-08-19T09:16:16;76.72;;;35.83;;
67896;SDS011;54698;48.428;9.964;2022-08-19T09:18:47;69.93;;;34.15;;
67896;SDS011;54698;48.428;9.964;2022-08-19T09:21:17;71.67;;;33.00;;
67896;SDS011;54698;48.428;9.964;2022-08-19T09:23:43;61.78;;;31.33;;
67896;SDS011;54698;48.428;9.964;2022-08-19T09:26:09;60.65;;;33.38;;
67896;SDS011;54698;48.428;9.964;2022-08-19T09:28:38;67.68;;;34.75;;
67896;SDS011;54698;48.428;9.964;2022-08-19T09:31:04;63.22;;;31.95;;
67896;SDS011;54698;48.428;9.964;2022-08-19T09:33:30;60.38;;;32.08;;
67896;SDS011;54698;48.428;9.964;2022-08-19T09:36:04;57.17;;;30.42;;
67896;SDS011;54698;48.428;9.964;2022-08-19T09:38:32;60.70;;;31.33;;
67896;SDS011;54698;48.428;9.964;2022-08-19T09:41:01;54.92;;;30.77;;
67896;SDS011;54698;48.428;9.964;2022-08-19T09:43:29;54.03;;;31.05;;
67896;SDS011;54698;48.428;9.964;2022-08-19T09:45:55;56.53;;;30.75;;
67896;SDS011;54698;48.428;9.964;2022-08-19T09:48:20;54.40;;;31.13;;
67896;SDS011;54698;48.428;9.964;2022-08-19T09:50:46;54.65;;;31.20;;
67896;SDS011;54698;48.428;9.964;2022-08-19T09:53:13;57.03;;;33.00;;
67896;SDS011;54698;48.428;9.964;2022-08-19T09:55:41;55.88;;;30.00;;
67896;SDS011;54698;48.428;9.964;2022-08-19T09:58:07;51.85;;;31.00;;
67896;SDS011;54698;48.428;9.964;2022-08-19T10:00:32;48.03;;;27.85;;
67896;SDS011;54698;48.428;9.964;2022-08-19T10:02:59;49.03;;;29.55;;
67896;SDS011;54698;48.428;9.964;2022-08-19T10:05:25;53.35;;;29.58;;
67896;SDS011;54698;48.428;9.964;2022-08-19T10:07:51;50.95;;;29.65;;
67896;SDS011;54698;48.428;9.964;2022-08-19T10:10:18;56.55;;;31.35;;
67896;SDS011;54698;48.428;9.964;2022-08-19T10:12:44;56.00;;;30.45;;
67896;SDS011;54698;48.428;9.964;2022-08-19T10:15:10;54.03;;;30.95;;
67896;SDS011;54698;48.428;9.964;2022-08-19T10:17:35;51.40;;;30.42;;
67896;SDS011;54698;48.428;9.964;2022-08-19T10:20:01;52.13;;;31.40;;
67896;SDS011;54698;48.428;9.964;2022-08-19T10:22:29;43.78;;;27.35;;
67896;SDS011;54698;48.428;9.964;2022-08-19T10:24:55;44.70;;;27.30;;
67896;SDS011;54698;48.428;9.964;2022-08-19T10:27:22;47.17;;;27.00;;
67896;SDS011;54698;48.428;9.964;2022-08-19T10:29:48;40.15;;;26.55;;
67896;SDS011;54698;48.428;9.964;2022-08-19T10:32:14;42.58;;;25.63;;
67896;SDS011;54698;48.428;9.964;2022-08-19T10:34:40;45.88;;;25.15;;
67896;SDS011;54698;48.428;9.964;2022-08-19T10:37:06;52.42;;;26.88;;
67896;SDS011;54698;48.428;9.964;2022-08-19T10:39:32;46.03;;;26.38;;
67896;SDS011;54698;48.428;9.964;2022-08-19T10:41:59;44.58;;;26.23;;
67896;SDS011;54698;48.428;9.964;2022-08-19T10:44:31;47.13;;;28.13;;
67896;SDS011;54698;48.428;9.964;2022-08-19T10:46:57;52.97;;;29.73;;
67896;SDS011;54698;48.428;9.964;2022-08-19T10:49:23;47.35;;;27.38;;
67896;SDS011;54698;48.428;9.964;2022-08-19T10:51:49;61.33;;;32.70;;
67896;SDS011;54698;48.428;9.964;2022-08-19T10:54:15;55.03;;;31.67;;
67896;SDS011;54698;48.428;9.964;2022-08-19T10:56:41;62.67;;;33.13;;
67896;SDS011;54698;48.428;9.964;2022-08-19T10:59:08;58.88;;;31.92;;
67896;SDS011;54698;48.428;9.964;2022-08-19T11:01:35;66.00;;;33.65;;
67896;SDS011;54698;48.428;9.964;2022-08-19T11:04:02;65.05;;;32.75;;
67896;SDS011;54698;48.428;9.964;2022-08-19T11:06:30;69.57;;;35.25;;
67896;SDS011;54698;48.428;9.964;2022-08-19T11:08:56;75.00;;;35.60;;
67896;SDS011;54698;48.428;9.964;2022-08-19T11:11:23;72.32;;;35.78;;
67896;SDS011;54698;48.428;9.964;2022-08-19T11:13:49;66.53;;;33.88;;
67896;SDS011;54698;48.428;9.964;2022-08-19T11:16:16;63.75;;;33.13;;
67896;SDS011;54698;48.428;9.964;2022-08-19T11:18:46;68.18;;;33.40;;
67896;SDS011;54698;48.428;9.964;2022-08-19T11:21:15;69.50;;;37.40;;
67896;SDS011;54698;48.428;9.964;2022-08-19T11:23:43;76.90;;;35.72;;
67896;SDS011;54698;48.428;9.964;2022-08-19T11:26:09;73.70;;;33.13;;
67896;SDS011;54698;48.428;9.964;2022-08-19T11:28:35;81.30;;;37.05;;
67896;SDS011;54698;48.428;9.964;2022-08-19T11:31:01;83.68;;;39.65;;
67896;SDS011;54698;48.428;9.964;2022-08-19T11:33:28;82.97;;;39.10;;
67896;SDS011;54698;48.428;9.964;2022-08-19T11:35:56;100.50;;;39.83;;
67896;SDS011;54698;48.428;9.964;2022-08-19T11:38:23;86.97;;;39.50;;
67896;SDS011;54698;48.428;9.964;2022-08-19T11:40:53;87.90;;;40.00;;
67896;SDS011;54698;48.428;9.964;2022-08-19T11:43:21;82.07;;;38.13;;
67896;SDS011;54698;48.428;9.964;2022-08-19T11:45:47;82.75;;;36.38;;
67896;SDS011;54698;48.428;9.964;2022-08-19T11:48:12;92.90;;;38.67;;
67896;SDS011;54698;48.428;9.964;2022-08-19T11:50:38;77.25;;;36.45;;
67896;SDS011;54698;48.428;9.964;2022-08-19T11:53:05;87.55;;;37.70;;
67896;SDS011;54698;48.428;9.964;2022-08-19T11:55:31;83.70;;;37.65;;
67896;SDS011;54698;48.428;9.964;2022-08-19T11:57:57;87.18;;;37.63;;
67896;SDS011;54698;48.428;9.964;2022-08-19T12:00:23;79.50;;;36.92;;
67896;SDS011;54698;48.428;9.964;2022-08-19T12:02:49;80.35;;;34.25;;
67896;SDS011;54698;48.428;9.964;2022-08-19T12:05:15;70.18;;;35.35;;
67896;SDS011;54698;48.428;9.964;2022-08-19T12:07:40;64.63;;;33.92;;
67896;SDS011;54698;48.428;9.964;2022-08-19T12:10:08;57.22;;;29.38;;
67896;SDS011;54698;48.428;9.964;2022-08-19T12:12:34;62.47;;;30.42;;
67896;SDS011;54698;48.428;9.964;2022-08-19T12:15:00;61.58;;;31.13;;
67896;SDS011;54698;48.428;9.964;2022-08-19T12:17:26;59.05;;;30.27;;
67896;SDS011;54698;48.428;9.964;2022-08-19T12:19:52;59.20;;;29.70;;
67896;SDS011;54698;48.428;9.964;2022-08-19T12:22:18;53.30;;;28.70;;
67896;SDS011;54698;48.428;9.964;2022-08-19T12:24:44;46.05;;;24.30;;
67896;SDS011;54698;48.428;9.964;2022-08-19T12:27:11;48.25;;;26.33;;
67896;SDS011;54698;48.428;9.964;2022-08-19T12:29:37;50.25;;;26.15;;
67896;SDS011;54698;48.428;9.964;2022-08-19T12:32:02;45.47;;;23.95;;
67896;SDS011;54698;48.428;9.964;2022-08-19T12:34:29;40.33;;;22.95;;
67896;SDS011;54698;48.428;9.964;2022-08-19T12:36:56;43.10;;;24.00;;
67896;SDS011;54698;48.428;9.964;2022-08-19T12:39:22;43.30;;;23.50;;
67896;SDS011;54698;48.428;9.964;2022-08-19T12:41:48;40.80;;;23.10;;
67896;SDS011;54698;48.428;9.964;2022-08-19T12:44:16;44.97;;;24.75;;
67896;SDS011;54698;48.428;9.964;2022-08-19T12:46:41;39.58;;;22.45;;
67896;SDS011;54698;48.428;9.964;2022-08-19T12:49:07;43.40;;;23.95;;
67896;SDS011;54698;48.428;9.964;2022-08-19T12:51:33;42.25;;;24.35;;
67896;SDS011;54698;48.428;9.964;2022-08-19T12:53:59;45.75;;;23.30;;
67896;SDS011;54698;48.428;9.964;2022-08-19T12:56:25;44.90;;;24.58;;
67896;SDS011;54698;48.428;9.964;2022-08-19T12:58:50;44.88;;;24.50;;
67896;SDS011;54698;48.428;9.964;2022-08-19T13:01:18;44.55;;;22.55;;
67896;SDS011;54698;48.428;9.964;2022-08-19T13:03:44;42.45;;;22.65;;
67896;SDS011;54698;48.428;9.964;2022-08-19T13:06:11;39.35;;;21.33;;
67896;SDS011;54698;48.428;9.964;2022-08-19T13:08:38;43.67;;;22.00;;
67896;SDS011;54698;48.428;9.964;2022-08-19T13:11:08;41.20;;;20.30;;
67896;SDS011;54698;48.428;9.964;2022-08-19T13:13:36;31.30;;;19.00;;
67896;SDS011;54698;48.428;9.964;2022-08-19T13:16:02;34.40;;;18.35;;
67896;SDS011;54698;48.428;9.964;2022-08-19T13:18:30;29.05;;;17.80;;
67896;SDS011;54698;48.428;9.964;2022-08-19T13:20:55;30.88;;;16.95;;
67896;SDS011;54698;48.428;9.964;2022-08-19T13:23:21;29.92;;;16.63;;
67896;SDS011;54698;48.428;9.964;2022-08-19T13:25:54;28.98;;;14.25;;
67896;SDS011;54698;48.428;9.964;2022-08-19T13:28:21;23.17;;;12.85;;
67896;SDS011;54698;48.428;9.964;2022-08-19T13:30:47;18.48;;;11.93;;
67896;SDS011;54698;48.428;9.964;2022-08-19T13:33:13;26.52;;;13.50;;
67896;SDS011;54698;48.428;9.964;2022-08-19T13:35:41;24.13;;;14.43;;
67896;SDS011;54698;48.428;9.964;2022-08-19T13:38:10;26.42;;;13.38;;
67896;SDS011;54698;48.428;9.964;2022-08-19T13:40:37;25.85;;;15.43;;
67896;SDS011;54698;48.428;9.964;2022-08-19T13:43:04;25.85;;;15.43;;
67896;SDS011;54698;48.428;9.964;2022-08-19T13:45:31;27.02;;;16.38;;
67896;SDS011;54698;48.428;9.964;2022-08-19T13:47:58;30.67;;;17.20;;
67896;SDS011;54698;48.428;9.964;2022-08-19T13:50:26;31.67;;;17.95;;
67896;SDS011;54698;48.428;9.964;2022-08-19T13:52:56;32.08;;;17.75;;
67896;SDS011;54698;48.428;9.964;2022-08-19T13:55:22;37.38;;;19.23;;
67896;SDS011;54698;48.428;9.964;2022-08-19T13:57:50;37.20;;;17.77;;
67896;SDS011;54698;48.428;9.964;2022-08-19T14:00:17;39.90;;;19.77;;
67896;SDS011;54698;48.428;9.964;2022-08-19T14:02:44;31.52;;;17.50;;
67896;SDS011;54698;48.428;9.964;2022-08-19T14:05:12;29.60;;;18.52;;
67896;SDS011;54698;48.428;9.964;2022-08-19T14:07:40;32.47;;;16.83;;
67896;SDS011;54698;48.428;9.964;2022-08-19T14:10:09;32.35;;;18.10;;
67896;SDS011;54698;48.428;9.964;2022-08-19T14:12:37;32.72;;;17.75;;
67896;SDS011;54698;48.428;9.964;2022-08-19T14:15:05;33.83;;;18.60;;
67896;SDS011;54698;48.428;9.964;2022-08-19T14:17:34;32.72;;;18.33;;
67896;SDS011;54698;48.428;9.964;2022-08-19T14:20:04;30.45;;;18.23;;